• Join FlightAware (Why Join?)
  • Login
  • US Flag 
12:15AM EST


 

Airport Tracker/Info


-or-


 

Live Flight TrackerFlight Track Log ✈ N8163Y ✈ 02-Sep-2013 ✈ KINL - KANE

Flight Track Log - Related Links

Times and Time Zones

All times are in EDT time to prevent confusion due to time zone crossing. See the N8163Y flight status page for this flight to view local times or setup timezone preferences in your user account.

Time Position Orientation Groundspeed Altitude Reporting Facility
EDT Latitude Longitude Course Direction KTS MPH feet Rate Location/Type
03:47PM 48.3502 -93.3893 180° South  Level Estimated
03:48PM 48.3143 -93.3872 180° South  Level Estimated
03:49PM 48.2794 -93.3999 194° South  Level FlightAware Approximate
03:49PM 48.4719 -93.4183 186° South 95 109 2,000  Level Minneapolis Center
03:50PM 48.2435 -93.3976 183° South  Level Estimated
03:50PM 48.4442 -93.4197 182° South 98 113 4,600  Level Minneapolis Center
03:51PM 48.2077 -93.4029 186° South  Level FlightAware Approximate
03:51PM 48.4172 -93.4167 176° South 98 113 4,800  Level Minneapolis Center
03:52PM 48.1719 -93.4081 186° South  Level FlightAware Approximate
03:52PM 48.3869 -93.4144 177° South 102 117 5,600  Level Minneapolis Center
03:53PM 48.1362 -93.4134 186° South  Level FlightAware Approximate
03:53PM 48.3564 -93.4142 180° South 106 122 5,800  Level Minneapolis Center
03:54PM 48.1004 -93.4186 186° South  Level FlightAware Approximate
03:54PM 48.3244 -93.4136 179° South 111 128 6,300  Level Minneapolis Center
03:55PM 48.2869 -93.4078 174° South 113 130 6,800 360 Climbing Minneapolis Center
03:56PM 48.2533 -93.4025 174° South 116 133 7,100 120 Climbing Minneapolis Center
03:57PM 48.2181 -93.4003 178° South 121 139 7,100  Level Minneapolis Center
03:58PM 48.1803 -93.3981 178° South 128 147 7,100  Level Minneapolis Center
03:59PM 48.1422 -93.3981 180° South 133 153 7,100  Level Minneapolis Center
04:00PM 48.1053 -93.3975 179° South 134 154 7,100 -60 Level Minneapolis Center
04:01PM 48.0608 -93.3958 179° South 134 154 7,000 -60 Descending Minneapolis Center
04:02PM 48.0233 -93.3947 179° South 134 154 7,000  Level Minneapolis Center
04:03PM 47.9869 -93.3883 173° South 133 153 7,000  Level Minneapolis Center
04:04PM 47.9506 -93.3853 177° South 133 153 7,000  Level Minneapolis Center
04:05PM 47.9139 -93.3819 177° South 132 152 7,000  Level Minneapolis Center
04:06PM 47.8697 -93.3789 177° South 133 153 7,000  Level Minneapolis Center
04:07PM 47.8325 -93.3761 177° South 133 153 7,000  Level Minneapolis Center
04:08PM 47.7958 -93.3728 177° South 133 153 7,000  Level Minneapolis Center
04:09PM 47.7603 -93.3700 177° South 131 151 7,000  Level Minneapolis Center
04:11PM 47.7242 -93.3667 176° South 130 150 7,000  Level Minneapolis Center
04:12PM 47.6864 -93.3633 177° South 133 153 7,000  Level Minneapolis Center
04:13PM 47.6419 -93.3606 178° South 134 154 7,000  Level Minneapolis Center
04:14PM 47.6058 -93.3619 181° South 133 153 7,000  Level Minneapolis Center
04:15PM 47.5689 -93.3633 181° South 133 153 7,000  Level Minneapolis Center
04:16PM 47.5325 -93.3625 179° South 132 152 7,000  Level Minneapolis Center
04:17PM 47.4953 -93.3569 174° South 132 152 7,000  Level Minneapolis Center
04:18PM 47.4519 -93.3533 177° South 132 152 7,000  Level Minneapolis Center
04:19PM 47.4158 -93.3500 176° South 132 152 7,000  Level Minneapolis Center
04:20PM 47.3794 -93.3469 177° South 132 152 7,000  Level Minneapolis Center
04:21PM 47.3422 -93.3439 177° South 134 154 7,000  Level Minneapolis Center
04:22PM 47.3061 -93.3403 176° South 133 153 7,000  Level Minneapolis Center
04:23PM 47.2614 -93.3392 179° South 133 153 7,000  Level Minneapolis Center
04:24PM 47.2242 -93.3389 180° South 134 154 7,000  Level Minneapolis Center
04:25PM 47.1875 -93.3378 179° South 133 153 7,000  Level Minneapolis Center
04:26PM 47.1503 -93.3367 179° South 133 153 7,000  Level Minneapolis Center
04:27PM 47.1131 -93.3358 179° South 134 154 7,000  Level Minneapolis Center
04:28PM 47.0683 -93.3297 175° South 135 155 7,000  Level Minneapolis Center
04:29PM 47.0308 -93.3258 176° South 135 155 7,000  Level Minneapolis Center
04:30PM 46.9933 -93.3228 177° South 135 155 7,000  Level Minneapolis Center
04:31PM 46.9561 -93.3186 176° South 135 155 7,000  Level Minneapolis Center
04:32PM 46.9183 -93.3150 176° South 135 155 7,000  Level Minneapolis Center
04:33PM 46.8803 -93.3114 176° South 136 157 7,000  Level Minneapolis Center
04:34PM 46.8358 -93.3103 179° South 135 155 7,000  Level Minneapolis Center
04:35PM 46.7981 -93.3117 181° South 136 157 7,000  Level Minneapolis Center
04:36PM 46.7614 -93.3122 181° South 134 154 7,000  Level Minneapolis Center
04:37PM 46.7236 -93.3128 181° South 135 155 7,000  Level Minneapolis Center
04:38PM 46.6864 -93.3117 179° South 134 154 7,000  Level Minneapolis Center
04:39PM 46.6419 -93.3061 175° South 134 154 7,000  Level Minneapolis Center
04:41PM 46.6039 -93.3036 177° South 135 155 7,000  Level Minneapolis Center
04:42PM 46.5672 -93.3006 177° South 135 155 7,000  Level Minneapolis Center
04:43PM 46.5300 -93.2961 175° South 134 154 7,000  Level Minneapolis Center
04:44PM 46.4922 -93.2947 179° South 135 155 7,000  Level Minneapolis Center
04:45PM 46.4550 -93.2911 176° South 135 155 7,000  Level Minneapolis Center
04:46PM 46.4097 -93.2864 176° South 136 157 7,000  Level Minneapolis Center
04:47PM 46.3717 -93.2828 176° South 136 157 7,000  Level Minneapolis Center
04:48PM 46.3339 -93.2803 177° South 137 158 7,000  Level Minneapolis Center
04:49PM 46.2961 -93.2792 179° South 136 157 7,000  Level Minneapolis Center
04:50PM 46.2594 -93.2778 178° South 134 154 7,000  Level Minneapolis Center
04:51PM 46.2231 -93.2744 176° South 133 153 7,000  Level Minneapolis Center
04:52PM 46.1811 -93.2692 175° South 129 148 7,000  Level Minneapolis Center
04:53PM 46.1436 -93.2658 176° South 131 151 7,000  Level Minneapolis Center
04:54PM 46.1053 -93.2639 178° South 135 155 7,000  Level Minneapolis Center
04:55PM 46.0675 -93.2639 180° South 135 155 7,000  Level Minneapolis Center
04:56PM 46.0303 -93.2622 178° South 135 155 7,000  Level Minneapolis Center
04:57PM 45.9850 -93.2589 177° South 135 155 7,000  Level Minneapolis Center
04:58PM 45.9461 -93.2578 179° South 137 158 7,000  Level Minneapolis Center
04:59PM 45.9100 -93.2533 175° South 135 155 7,000  Level Minneapolis Center
05:00PM 45.8728 -93.2528 179° South 133 153 7,000  Level Minneapolis Center
05:01PM 45.8347 -93.2500 177° South 135 155 7,000  Level Minneapolis Center
05:02PM 45.7972 -93.2475 177° South 135 155 7,000 -240 Level Minneapolis Center
05:03PM 45.7494 -93.2447 178° South 143 165 6,500 -420 Descending Minneapolis Center
05:04PM 45.7081 -93.2406 176° South 148 170 6,200 -420 Descending Minneapolis Center
05:05PM 45.6681 -93.2403 180° South 142 163 5,700 -420 Descending Minneapolis Center
05:06PM 45.6275 -93.2389 179° South 146 168 5,400 -540 Descending Minneapolis Center
05:07PM 45.5872 -93.2372 178° South 145 167 4,700 -240 Descending Minneapolis Center
05:08PM 45.5494 -93.2353 178° South 138 159 5,000 120 Climbing Minneapolis Center
05:09PM 45.5058 -93.2339 179° South 131 151 5,000  Level Minneapolis Center
05:11PM 45.4683 -93.2308 177° South 136 157 5,000 -180 Level Minneapolis Center
05:12PM 45.4314 -93.2278 177° South 136 157 4,700 -360 Descending Minneapolis Center
05:13PM 45.3908 -93.2250 177° South 145 167 4,300 -540 Descending Minneapolis Center
05:14PM 45.3517 -93.2206 175° South 142 163 3,700 -540 Descending Minneapolis Center
05:15PM 45.3144 -93.2200 179° South 135 155 3,200 -360 Descending Minneapolis Center
05:16PM 45.2742 -93.2214 181° South 121 139 3,000 -300 Descending Minneapolis Center
05:17PM 45.2394 -93.2186 177° South 124 143 2,700 -420 Descending Minneapolis Center
05:18PM 45.2058 -93.1931 152° Southeast 135 155 2,200 -360 Descending Minneapolis Center
05:19PM 45.1717 -93.1875 173° South 125 144 2,000 -240 Descending Minneapolis Center
05:20PM 45.1342 -93.1844 177° South 113 130 1,700 -300 Descending Minneapolis Center
05:21PM 45.1200 -93.2017 221° Southwest 82 94 1,400 -360 Descending Minneapolis Center
05:22PM 45.1386 -93.2094 344° North 75 86 1,000 -420 Descending Minneapolis Center
05:24PM 45.1333 -93.2000 270° West  Level FlightAware Approximate